sensor_id;sensor_type;location;lat;lon;timestamp;P1;durP1;ratioP1;P2;durP2;ratioP2
14394;SDS011;7282;49.204;10.652;2022-07-24T00:00:45;11.13;;;10.03;;
14394;SDS011;7282;49.204;10.652;2022-07-24T00:03:12;10.73;;;9.83;;
14394;SDS011;7282;49.204;10.652;2022-07-24T00:05:38;10.93;;;10.03;;
14394;SDS011;7282;49.204;10.652;2022-07-24T00:08:05;10.43;;;9.53;;
14394;SDS011;7282;49.204;10.652;2022-07-24T00:10:32;10.50;;;9.50;;
14394;SDS011;7282;49.204;10.652;2022-07-24T00:12:59;10.40;;;9.50;;
14394;SDS011;7282;49.204;10.652;2022-07-24T00:15:25;11.13;;;10.20;;
14394;SDS011;7282;49.204;10.652;2022-07-24T00:17:52;11.30;;;10.30;;
14394;SDS011;7282;49.204;10.652;2022-07-24T00:20:19;10.83;;;9.93;;
14394;SDS011;7282;49.204;10.652;2022-07-24T00:22:45;11.37;;;10.17;;
14394;SDS011;7282;49.204;10.652;2022-07-24T00:25:12;11.40;;;10.40;;
14394;SDS011;7282;49.204;10.652;2022-07-24T00:27:39;10.70;;;9.70;;
14394;SDS011;7282;49.204;10.652;2022-07-24T00:30:06;11.10;;;10.10;;
14394;SDS011;7282;49.204;10.652;2022-07-24T00:32:33;11.23;;;10.23;;
14394;SDS011;7282;49.204;10.652;2022-07-24T00:35:00;10.87;;;9.87;;
14394;SDS011;7282;49.204;10.652;2022-07-24T00:37:26;11.23;;;10.23;;
14394;SDS011;7282;49.204;10.652;2022-07-24T00:39:53;11.53;;;10.50;;
14394;SDS011;7282;49.204;10.652;2022-07-24T00:42:20;10.43;;;9.53;;
14394;SDS011;7282;49.204;10.652;2022-07-24T00:44:46;11.03;;;10.03;;
14394;SDS011;7282;49.204;10.652;2022-07-24T00:47:13;10.40;;;9.50;;
14394;SDS011;7282;49.204;10.652;2022-07-24T00:49:40;11.20;;;10.27;;
14394;SDS011;7282;49.204;10.652;2022-07-24T00:52:06;10.67;;;9.77;;
14394;SDS011;7282;49.204;10.652;2022-07-24T00:54:33;11.20;;;10.20;;
14394;SDS011;7282;49.204;10.652;2022-07-24T00:57:00;11.67;;;10.47;;
14394;SDS011;7282;49.204;10.652;2022-07-24T00:59:27;10.43;;;9.43;;
14394;SDS011;7282;49.204;10.652;2022-07-24T01:01:53;10.80;;;9.90;;
14394;SDS011;7282;49.204;10.652;2022-07-24T01:04:20;11.13;;;10.00;;
14394;SDS011;7282;49.204;10.652;2022-07-24T01:06:47;10.57;;;9.67;;
14394;SDS011;7282;49.204;10.652;2022-07-24T01:09:14;10.63;;;9.70;;
14394;SDS011;7282;49.204;10.652;2022-07-24T01:11:41;10.33;;;9.43;;
14394;SDS011;7282;49.204;10.652;2022-07-24T01:14:09;10.60;;;9.70;;
14394;SDS011;7282;49.204;10.652;2022-07-24T01:16:37;10.70;;;9.73;;
14394;SDS011;7282;49.204;10.652;2022-07-24T01:19:04;10.67;;;9.77;;
14394;SDS011;7282;49.204;10.652;2022-07-24T01:21:31;10.43;;;9.60;;
14394;SDS011;7282;49.204;10.652;2022-07-24T01:23:58;10.30;;;9.30;;
14394;SDS011;7282;49.204;10.652;2022-07-24T01:26:24;10.10;;;9.07;;
14394;SDS011;7282;49.204;10.652;2022-07-24T01:28:52;9.80;;;8.87;;
14394;SDS011;7282;49.204;10.652;2022-07-24T01:31:19;10.20;;;9.30;;
14394;SDS011;7282;49.204;10.652;2022-07-24T01:33:45;10.30;;;9.40;;
14394;SDS011;7282;49.204;10.652;2022-07-24T01:36:12;10.53;;;9.53;;
14394;SDS011;7282;49.204;10.652;2022-07-24T01:38:39;10.70;;;9.70;;
14394;SDS011;7282;49.204;10.652;2022-07-24T01:41:06;10.53;;;9.63;;
14394;SDS011;7282;49.204;10.652;2022-07-24T01:43:32;9.73;;;8.93;;
14394;SDS011;7282;49.204;10.652;2022-07-24T01:45:59;10.07;;;9.20;;
14394;SDS011;7282;49.204;10.652;2022-07-24T01:48:26;9.60;;;8.70;;
14394;SDS011;7282;49.204;10.652;2022-07-24T01:50:52;10.47;;;9.57;;
14394;SDS011;7282;49.204;10.652;2022-07-24T01:53:19;10.20;;;9.20;;
14394;SDS011;7282;49.204;10.652;2022-07-24T01:55:46;10.67;;;9.77;;
14394;SDS011;7282;49.204;10.652;2022-07-24T01:58:14;9.77;;;8.97;;
14394;SDS011;7282;49.204;10.652;2022-07-24T02:00:41;10.17;;;9.30;;
14394;SDS011;7282;49.204;10.652;2022-07-24T02:03:08;9.93;;;9.03;;
14394;SDS011;7282;49.204;10.652;2022-07-24T02:05:34;10.13;;;9.23;;
14394;SDS011;7282;49.204;10.652;2022-07-24T02:08:01;10.70;;;9.80;;
14394;SDS011;7282;49.204;10.652;2022-07-24T02:10:28;10.33;;;9.43;;
14394;SDS011;7282;49.204;10.652;2022-07-24T02:12:55;10.27;;;9.27;;
14394;SDS011;7282;49.204;10.652;2022-07-24T02:15:22;11.57;;;10.40;;
14394;SDS011;7282;49.204;10.652;2022-07-24T02:17:50;11.13;;;10.13;;
14394;SDS011;7282;49.204;10.652;2022-07-24T02:20:18;11.47;;;10.37;;
14394;SDS011;7282;49.204;10.652;2022-07-24T02:22:45;11.80;;;10.70;;
14394;SDS011;7282;49.204;10.652;2022-07-24T02:25:12;11.93;;;10.83;;
14394;SDS011;7282;49.204;10.652;2022-07-24T02:27:39;10.63;;;9.63;;
14394;SDS011;7282;49.204;10.652;2022-07-24T02:30:07;10.97;;;9.97;;
14394;SDS011;7282;49.204;10.652;2022-07-24T02:32:34;10.07;;;9.20;;
14394;SDS011;7282;49.204;10.652;2022-07-24T02:35:01;10.77;;;9.87;;
14394;SDS011;7282;49.204;10.652;2022-07-24T02:37:28;9.13;;;8.43;;
14394;SDS011;7282;49.204;10.652;2022-07-24T02:39:54;10.40;;;9.40;;
14394;SDS011;7282;49.204;10.652;2022-07-24T02:42:21;10.20;;;9.23;;
14394;SDS011;7282;49.204;10.652;2022-07-24T02:44:48;10.57;;;9.60;;
14394;SDS011;7282;49.204;10.652;2022-07-24T02:47:14;10.60;;;9.70;;
14394;SDS011;7282;49.204;10.652;2022-07-24T02:49:41;9.90;;;9.10;;
14394;SDS011;7282;49.204;10.652;2022-07-24T02:52:08;10.10;;;9.20;;
14394;SDS011;7282;49.204;10.652;2022-07-24T02:54:35;10.60;;;9.70;;
14394;SDS011;7282;49.204;10.652;2022-07-24T02:57:01;9.90;;;9.03;;
14394;SDS011;7282;49.204;10.652;2022-07-24T02:59:28;9.80;;;8.90;;
14394;SDS011;7282;49.204;10.652;2022-07-24T03:01:55;10.47;;;9.40;;
14394;SDS011;7282;49.204;10.652;2022-07-24T03:04:22;10.30;;;9.40;;
14394;SDS011;7282;49.204;10.652;2022-07-24T03:06:49;10.10;;;9.20;;
14394;SDS011;7282;49.204;10.652;2022-07-24T03:09:15;10.20;;;9.37;;
14394;SDS011;7282;49.204;10.652;2022-07-24T03:11:42;10.13;;;9.23;;
14394;SDS011;7282;49.204;10.652;2022-07-24T03:14:09;10.30;;;9.40;;
14394;SDS011;7282;49.204;10.652;2022-07-24T03:16:36;10.40;;;9.50;;
14394;SDS011;7282;49.204;10.652;2022-07-24T03:19:03;11.37;;;10.37;;
14394;SDS011;7282;49.204;10.652;2022-07-24T03:21:30;11.90;;;10.80;;
14394;SDS011;7282;49.204;10.652;2022-07-24T03:23:56;11.03;;;10.13;;
14394;SDS011;7282;49.204;10.652;2022-07-24T03:26:23;10.53;;;9.63;;
14394;SDS011;7282;49.204;10.652;2022-07-24T03:28:50;11.03;;;10.03;;
14394;SDS011;7282;49.204;10.652;2022-07-24T03:31:16;11.83;;;10.73;;
14394;SDS011;7282;49.204;10.652;2022-07-24T03:33:43;12.93;;;11.73;;
14394;SDS011;7282;49.204;10.652;2022-07-24T03:36:10;12.33;;;11.23;;
14394;SDS011;7282;49.204;10.652;2022-07-24T03:38:36;12.80;;;11.60;;
14394;SDS011;7282;49.204;10.652;2022-07-24T03:41:03;13.00;;;11.67;;
14394;SDS011;7282;49.204;10.652;2022-07-24T03:43:30;11.63;;;10.53;;
14394;SDS011;7282;49.204;10.652;2022-07-24T03:45:57;12.50;;;11.40;;
14394;SDS011;7282;49.204;10.652;2022-07-24T03:48:23;12.50;;;11.50;;
14394;SDS011;7282;49.204;10.652;2022-07-24T03:50:50;13.37;;;12.07;;
14394;SDS011;7282;49.204;10.652;2022-07-24T03:53:17;13.37;;;12.17;;
14394;SDS011;7282;49.204;10.652;2022-07-24T03:55:43;13.97;;;12.67;;
14394;SDS011;7282;49.204;10.652;2022-07-24T03:58:10;12.80;;;11.70;;
14394;SDS011;7282;49.204;10.652;2022-07-24T04:00:37;14.10;;;12.70;;
14394;SDS011;7282;49.204;10.652;2022-07-24T04:03:03;13.70;;;12.37;;
14394;SDS011;7282;49.204;10.652;2022-07-24T04:05:33;11.63;;;10.43;;
14394;SDS011;7282;49.204;10.652;2022-07-24T04:07:59;12.20;;;11.10;;
14394;SDS011;7282;49.204;10.652;2022-07-24T04:10:26;13.27;;;11.97;;
14394;SDS011;7282;49.204;10.652;2022-07-24T04:12:53;12.90;;;11.70;;
14394;SDS011;7282;49.204;10.652;2022-07-24T04:15:19;12.80;;;11.60;;
14394;SDS011;7282;49.204;10.652;2022-07-24T04:17:46;12.97;;;11.77;;
14394;SDS011;7282;49.204;10.652;2022-07-24T04:20:13;13.03;;;11.83;;
14394;SDS011;7282;49.204;10.652;2022-07-24T04:22:39;12.50;;;11.40;;
14394;SDS011;7282;49.204;10.652;2022-07-24T04:25:06;13.30;;;12.10;;
14394;SDS011;7282;49.204;10.652;2022-07-24T04:27:34;14.07;;;12.83;;
14394;SDS011;7282;49.204;10.652;2022-07-24T04:30:01;13.97;;;12.67;;
14394;SDS011;7282;49.204;10.652;2022-07-24T04:32:27;14.27;;;12.97;;
14394;SDS011;7282;49.204;10.652;2022-07-24T04:34:54;13.70;;;12.50;;
14394;SDS011;7282;49.204;10.652;2022-07-24T04:37:21;15.03;;;13.53;;
14394;SDS011;7282;49.204;10.652;2022-07-24T04:39:48;15.27;;;13.77;;
14394;SDS011;7282;49.204;10.652;2022-07-24T04:42:14;14.53;;;13.13;;
14394;SDS011;7282;49.204;10.652;2022-07-24T04:44:41;13.13;;;11.93;;
14394;SDS011;7282;49.204;10.652;2022-07-24T04:47:08;14.80;;;13.30;;
14394;SDS011;7282;49.204;10.652;2022-07-24T04:49:34;14.50;;;13.10;;
14394;SDS011;7282;49.204;10.652;2022-07-24T04:52:01;13.57;;;12.33;;
14394;SDS011;7282;49.204;10.652;2022-07-24T04:54:28;14.20;;;12.90;;
14394;SDS011;7282;49.204;10.652;2022-07-24T04:56:54;15.47;;;14.07;;
14394;SDS011;7282;49.204;10.652;2022-07-24T04:59:21;16.03;;;14.53;;
14394;SDS011;7282;49.204;10.652;2022-07-24T05:01:48;15.47;;;14.07;;
14394;SDS011;7282;49.204;10.652;2022-07-24T05:04:14;16.53;;;15.03;;
14394;SDS011;7282;49.204;10.652;2022-07-24T05:06:41;16.20;;;14.70;;
14394;SDS011;7282;49.204;10.652;2022-07-24T05:09:08;18.40;;;16.70;;
14394;SDS011;7282;49.204;10.652;2022-07-24T05:11:35;17.70;;;16.10;;
14394;SDS011;7282;49.204;10.652;2022-07-24T05:14:01;17.87;;;16.27;;
14394;SDS011;7282;49.204;10.652;2022-07-24T05:16:28;17.33;;;15.83;;
14394;SDS011;7282;49.204;10.652;2022-07-24T05:18:57;17.23;;;15.63;;
14394;SDS011;7282;49.204;10.652;2022-07-24T05:21:24;17.97;;;16.27;;
14394;SDS011;7282;49.204;10.652;2022-07-24T05:23:51;20.33;;;18.43;;
14394;SDS011;7282;49.204;10.652;2022-07-24T05:26:18;18.90;;;17.03;;
14394;SDS011;7282;49.204;10.652;2022-07-24T05:28:44;17.80;;;16.10;;
14394;SDS011;7282;49.204;10.652;2022-07-24T05:31:11;17.67;;;15.97;;
14394;SDS011;7282;49.204;10.652;2022-07-24T05:33:38;15.93;;;14.43;;
14394;SDS011;7282;49.204;10.652;2022-07-24T05:36:05;14.37;;;13.07;;
14394;SDS011;7282;49.204;10.652;2022-07-24T05:38:32;14.17;;;12.87;;
14394;SDS011;7282;49.204;10.652;2022-07-24T05:40:58;14.87;;;13.47;;
14394;SDS011;7282;49.204;10.652;2022-07-24T05:43:25;16.33;;;14.93;;
14394;SDS011;7282;49.204;10.652;2022-07-24T05:45:52;16.20;;;14.60;;
14394;SDS011;7282;49.204;10.652;2022-07-24T05:48:18;17.03;;;15.63;;
14394;SDS011;7282;49.204;10.652;2022-07-24T05:50:45;19.73;;;17.93;;
14394;SDS011;7282;49.204;10.652;2022-07-24T05:53:12;19.80;;;17.80;;
14394;SDS011;7282;49.204;10.652;2022-07-24T05:55:38;19.83;;;18.07;;
14394;SDS011;7282;49.204;10.652;2022-07-24T05:58:05;18.93;;;17.20;;
14394;SDS011;7282;49.204;10.652;2022-07-24T06:00:32;19.43;;;17.73;;
14394;SDS011;7282;49.204;10.652;2022-07-24T06:02:58;21.10;;;19.30;;
14394;SDS011;7282;49.204;10.652;2022-07-24T06:05:25;19.07;;;17.17;;
14394;SDS011;7282;49.204;10.652;2022-07-24T06:07:52;19.73;;;17.87;;
14394;SDS011;7282;49.204;10.652;2022-07-24T06:10:18;18.90;;;17.20;;
14394;SDS011;7282;49.204;10.652;2022-07-24T06:12:45;18.47;;;16.77;;
14394;SDS011;7282;49.204;10.652;2022-07-24T06:15:12;18.03;;;16.43;;
14394;SDS011;7282;49.204;10.652;2022-07-24T06:17:39;16.43;;;15.03;;
14394;SDS011;7282;49.204;10.652;2022-07-24T06:20:06;16.83;;;15.23;;
14394;SDS011;7282;49.204;10.652;2022-07-24T06:22:33;16.97;;;15.40;;
14394;SDS011;7282;49.204;10.652;2022-07-24T06:25:00;16.30;;;14.73;;
14394;SDS011;7282;49.204;10.652;2022-07-24T06:27:27;18.67;;;17.00;;
14394;SDS011;7282;49.204;10.652;2022-07-24T06:29:53;15.10;;;13.77;;
14394;SDS011;7282;49.204;10.652;2022-07-24T06:32:20;13.80;;;12.60;;
14394;SDS011;7282;49.204;10.652;2022-07-24T06:34:47;12.37;;;11.23;;
14394;SDS011;7282;49.204;10.652;2022-07-24T06:37:14;12.30;;;11.20;;
14394;SDS011;7282;49.204;10.652;2022-07-24T06:39:40;14.60;;;13.30;;
14394;SDS011;7282;49.204;10.652;2022-07-24T06:42:07;13.10;;;11.90;;
14394;SDS011;7282;49.204;10.652;2022-07-24T06:44:34;13.03;;;11.83;;
14394;SDS011;7282;49.204;10.652;2022-07-24T06:47:02;12.07;;;10.97;;
14394;SDS011;7282;49.204;10.652;2022-07-24T06:49:29;13.27;;;12.17;;
14394;SDS011;7282;49.204;10.652;2022-07-24T06:51:55;11.93;;;10.90;;
14394;SDS011;7282;49.204;10.652;2022-07-24T06:54:22;10.93;;;9.93;;
14394;SDS011;7282;49.204;10.652;2022-07-24T06:56:49;14.53;;;13.03;;
14394;SDS011;7282;49.204;10.652;2022-07-24T06:59:15;10.70;;;9.80;;
14394;SDS011;7282;49.204;10.652;2022-07-24T07:01:42;11.57;;;10.57;;
14394;SDS011;7282;49.204;10.652;2022-07-24T07:04:09;10.90;;;9.97;;
14394;SDS011;7282;49.204;10.652;2022-07-24T07:06:36;11.03;;;10.00;;
14394;SDS011;7282;49.204;10.652;2022-07-24T07:09:02;9.67;;;8.90;;
14394;SDS011;7282;49.204;10.652;2022-07-24T07:11:29;10.80;;;9.80;;
14394;SDS011;7282;49.204;10.652;2022-07-24T07:13:56;9.50;;;8.73;;
14394;SDS011;7282;49.204;10.652;2022-07-24T07:16:22;11.63;;;10.63;;
14394;SDS011;7282;49.204;10.652;2022-07-24T07:18:49;11.03;;;10.03;;
14394;SDS011;7282;49.204;10.652;2022-07-24T07:21:16;12.07;;;10.93;;
14394;SDS011;7282;49.204;10.652;2022-07-24T07:23:42;10.10;;;9.30;;
14394;SDS011;7282;49.204;10.652;2022-07-24T07:26:09;9.57;;;8.67;;
14394;SDS011;7282;49.204;10.652;2022-07-24T07:28:36;9.87;;;9.07;;
14394;SDS011;7282;49.204;10.652;2022-07-24T07:31:03;9.43;;;8.63;;
14394;SDS011;7282;49.204;10.652;2022-07-24T07:33:29;9.33;;;8.57;;
14394;SDS011;7282;49.204;10.652;2022-07-24T07:35:56;11.70;;;10.70;;
14394;SDS011;7282;49.204;10.652;2022-07-24T07:38:23;11.67;;;10.60;;
14394;SDS011;7282;49.204;10.652;2022-07-24T07:40:49;11.33;;;10.00;;
14394;SDS011;7282;49.204;10.652;2022-07-24T07:43:16;10.97;;;9.87;;
14394;SDS011;7282;49.204;10.652;2022-07-24T07:45:43;9.60;;;8.90;;
14394;SDS011;7282;49.204;10.652;2022-07-24T07:48:10;9.20;;;8.40;;
14394;SDS011;7282;49.204;10.652;2022-07-24T07:50:36;10.77;;;9.87;;
14394;SDS011;7282;49.204;10.652;2022-07-24T07:53:03;11.13;;;10.13;;
14394;SDS011;7282;49.204;10.652;2022-07-24T07:55:30;9.57;;;8.77;;
14394;SDS011;7282;49.204;10.652;2022-07-24T07:57:56;9.23;;;8.43;;
14394;SDS011;7282;49.204;10.652;2022-07-24T08:00:23;9.23;;;8.43;;
14394;SDS011;7282;49.204;10.652;2022-07-24T08:02:50;10.20;;;9.30;;
14394;SDS011;7282;49.204;10.652;2022-07-24T08:05:17;9.17;;;8.37;;
14394;SDS011;7282;49.204;10.652;2022-07-24T08:07:43;9.23;;;8.43;;
14394;SDS011;7282;49.204;10.652;2022-07-24T08:10:10;8.73;;;7.93;;
14394;SDS011;7282;49.204;10.652;2022-07-24T08:12:37;8.83;;;8.03;;
14394;SDS011;7282;49.204;10.652;2022-07-24T08:15:04;8.50;;;7.80;;
14394;SDS011;7282;49.204;10.652;2022-07-24T08:17:31;8.27;;;7.57;;
14394;SDS011;7282;49.204;10.652;2022-07-24T08:19:58;8.47;;;7.67;;
14394;SDS011;7282;49.204;10.652;2022-07-24T08:22:25;9.53;;;8.73;;
14394;SDS011;7282;49.204;10.652;2022-07-24T08:24:51;9.27;;;8.37;;
14394;SDS011;7282;49.204;10.652;2022-07-24T08:27:18;6.83;;;6.33;;
14394;SDS011;7282;49.204;10.652;2022-07-24T08:29:45;8.57;;;7.83;;
14394;SDS011;7282;49.204;10.652;2022-07-24T08:32:16;8.27;;;7.57;;
14394;SDS011;7282;49.204;10.652;2022-07-24T08:34:40;9.57;;;8.50;;
14394;SDS011;7282;49.204;10.652;2022-07-24T08:37:07;8.60;;;7.90;;
14394;SDS011;7282;49.204;10.652;2022-07-24T08:39:33;9.07;;;8.20;;
14394;SDS011;7282;49.204;10.652;2022-07-24T08:42:00;9.13;;;8.33;;
14394;SDS011;7282;49.204;10.652;2022-07-24T08:44:27;10.20;;;9.17;;
14394;SDS011;7282;49.204;10.652;2022-07-24T08:46:53;8.77;;;8.03;;
14394;SDS011;7282;49.204;10.652;2022-07-24T08:49:20;8.63;;;7.93;;
14394;SDS011;7282;49.204;10.652;2022-07-24T08:51:48;9.23;;;8.37;;
14394;SDS011;7282;49.204;10.652;2022-07-24T08:54:15;9.87;;;9.07;;
14394;SDS011;7282;49.204;10.652;2022-07-24T08:56:42;9.03;;;8.23;;
14394;SDS011;7282;49.204;10.652;2022-07-24T08:59:18;9.73;;;8.80;;
14394;SDS011;7282;49.204;10.652;2022-07-24T09:01:50;9.43;;;8.53;;
14394;SDS011;7282;49.204;10.652;2022-07-24T09:04:48;9.73;;;8.93;;
14394;SDS011;7282;49.204;10.652;2022-07-24T09:06:58;9.90;;;8.90;;
14394;SDS011;7282;49.204;10.652;2022-07-24T09:09:25;9.43;;;8.53;;
14394;SDS011;7282;49.204;10.652;2022-07-24T09:12:04;9.50;;;8.70;;
14394;SDS011;7282;49.204;10.652;2022-07-24T09:14:32;9.40;;;8.60;;
14394;SDS011;7282;49.204;10.652;2022-07-24T09:17:07;9.00;;;8.23;;
14394;SDS011;7282;49.204;10.652;2022-07-24T09:19:30;9.60;;;8.70;;
14394;SDS011;7282;49.204;10.652;2022-07-24T09:21:57;9.93;;;9.00;;
14394;SDS011;7282;49.204;10.652;2022-07-24T09:24:24;9.10;;;8.30;;
14394;SDS011;7282;49.204;10.652;2022-07-24T09:26:56;9.60;;;8.80;;
14394;SDS011;7282;49.204;10.652;2022-07-24T09:29:22;10.03;;;9.20;;
14394;SDS011;7282;49.204;10.652;2022-07-24T09:31:59;9.13;;;8.43;;
14394;SDS011;7282;49.204;10.652;2022-07-24T09:34:30;9.77;;;8.87;;
14394;SDS011;7282;49.204;10.652;2022-07-24T09:37:00;8.23;;;7.60;;
14394;SDS011;7282;49.204;10.652;2022-07-24T09:39:28;8.50;;;7.70;;
14394;SDS011;7282;49.204;10.652;2022-07-24T09:41:56;8.70;;;8.00;;
14394;SDS011;7282;49.204;10.652;2022-07-24T09:44:23;9.07;;;8.17;;
14394;SDS011;7282;49.204;10.652;2022-07-24T09:46:57;9.30;;;8.40;;
14394;SDS011;7282;49.204;10.652;2022-07-24T09:49:25;8.83;;;7.97;;
14394;SDS011;7282;49.204;10.652;2022-07-24T09:54:38;9.10;;;8.40;;
14394;SDS011;7282;49.204;10.652;2022-07-24T09:57:27;9.57;;;8.67;;
14394;SDS011;7282;49.204;10.652;2022-07-24T09:59:34;8.70;;;7.90;;
14394;SDS011;7282;49.204;10.652;2022-07-24T10:02:02;8.63;;;7.87;;
14394;SDS011;7282;49.204;10.652;2022-07-24T10:04:30;7.93;;;7.30;;
14394;SDS011;7282;49.204;10.652;2022-07-24T10:06:58;9.50;;;7.90;;
14394;SDS011;7282;49.204;10.652;2022-07-24T10:09:25;8.73;;;8.03;;
14394;SDS011;7282;49.204;10.652;2022-07-24T10:11:53;8.57;;;7.97;;
14394;SDS011;7282;49.204;10.652;2022-07-24T10:17:06;8.50;;;7.80;;
14394;SDS011;7282;49.204;10.652;2022-07-24T10:19:43;9.07;;;8.10;;
14394;SDS011;7282;49.204;10.652;2022-07-24T10:22:02;8.40;;;7.77;;
14394;SDS011;7282;49.204;10.652;2022-07-24T10:27:03;8.77;;;8.07;;
14394;SDS011;7282;49.204;10.652;2022-07-24T10:29:27;9.00;;;8.20;;
14394;SDS011;7282;49.204;10.652;2022-07-24T10:31:55;9.30;;;8.40;;
14394;SDS011;7282;49.204;10.652;2022-07-24T10:34:33;8.17;;;7.53;;
14394;SDS011;7282;49.204;10.652;2022-07-24T10:37:05;8.90;;;8.20;;
14394;SDS011;7282;49.204;10.652;2022-07-24T10:39:31;8.80;;;8.00;;
14394;SDS011;7282;49.204;10.652;2022-07-24T10:42:06;9.23;;;8.37;;
14394;SDS011;7282;49.204;10.652;2022-07-24T10:44:29;8.67;;;7.97;;
14394;SDS011;7282;49.204;10.652;2022-07-24T10:46:56;8.00;;;7.40;;
14394;SDS011;7282;49.204;10.652;2022-07-24T10:49:33;8.40;;;7.70;;
14394;SDS011;7282;49.204;10.652;2022-07-24T10:52:00;7.80;;;7.10;;
14394;SDS011;7282;49.204;10.652;2022-07-24T10:54:26;8.17;;;7.50;;
14394;SDS011;7282;49.204;10.652;2022-07-24T10:56:53;8.80;;;8.00;;
14394;SDS011;7282;49.204;10.652;2022-07-24T10:59:36;8.83;;;8.07;;
14394;SDS011;7282;49.204;10.652;2022-07-24T11:04:50;8.30;;;7.60;;
14394;SDS011;7282;49.204;10.652;2022-07-24T11:07:17;8.80;;;8.00;;
14394;SDS011;7282;49.204;10.652;2022-07-24T11:10:03;8.07;;;7.37;;
14394;SDS011;7282;49.204;10.652;2022-07-24T11:12:16;8.73;;;7.97;;
14394;SDS011;7282;49.204;10.652;2022-07-24T11:14:48;8.60;;;7.73;;
14394;SDS011;7282;49.204;10.652;2022-07-24T11:20:00;8.43;;;7.63;;
14394;SDS011;7282;49.204;10.652;2022-07-24T11:25:18;8.57;;;7.87;;
14394;SDS011;7282;49.204;10.652;2022-07-24T11:27:49;8.37;;;7.67;;
14394;SDS011;7282;49.204;10.652;2022-07-24T11:30:17;7.90;;;7.30;;
14394;SDS011;7282;49.204;10.652;2022-07-24T11:32:44;7.83;;;7.23;;
14394;SDS011;7282;49.204;10.652;2022-07-24T11:35:11;7.30;;;6.80;;
14394;SDS011;7282;49.204;10.652;2022-07-24T11:37:39;7.53;;;6.93;;
14394;SDS011;7282;49.204;10.652;2022-07-24T11:40:06;7.53;;;7.03;;
14394;SDS011;7282;49.204;10.652;2022-07-24T11:42:34;8.33;;;7.40;;
14394;SDS011;7282;49.204;10.652;2022-07-24T11:45:02;7.53;;;6.83;;
14394;SDS011;7282;49.204;10.652;2022-07-24T11:47:29;7.20;;;6.70;;
14394;SDS011;7282;49.204;10.652;2022-07-24T11:49:57;8.17;;;7.53;;
14394;SDS011;7282;49.204;10.652;2022-07-24T11:52:26;8.07;;;7.47;;
14394;SDS011;7282;49.204;10.652;2022-07-24T11:54:54;7.90;;;7.30;;
14394;SDS011;7282;49.204;10.652;2022-07-24T11:57:22;7.70;;;7.10;;
14394;SDS011;7282;49.204;10.652;2022-07-24T11:59:49;8.17;;;7.47;;
14394;SDS011;7282;49.204;10.652;2022-07-24T12:02:16;7.73;;;7.13;;
14394;SDS011;7282;49.204;10.652;2022-07-24T12:04:48;7.73;;;7.13;;
14394;SDS011;7282;49.204;10.652;2022-07-24T12:07:14;7.63;;;6.93;;
14394;SDS011;7282;49.204;10.652;2022-07-24T12:09:49;7.63;;;7.03;;
14394;SDS011;7282;49.204;10.652;2022-07-24T12:12:31;7.37;;;6.77;;
14394;SDS011;7282;49.204;10.652;2022-07-24T12:17:30;6.83;;;6.33;;
14394;SDS011;7282;49.204;10.652;2022-07-24T12:19:58;7.33;;;6.83;;
14394;SDS011;7282;49.204;10.652;2022-07-24T12:22:26;7.10;;;6.50;;
14394;SDS011;7282;49.204;10.652;2022-07-24T12:24:54;7.67;;;7.07;;
14394;SDS011;7282;49.204;10.652;2022-07-24T12:30:02;6.60;;;5.97;;
14394;SDS011;7282;49.204;10.652;2022-07-24T12:32:29;6.10;;;5.60;;
14394;SDS011;7282;49.204;10.652;2022-07-24T12:34:56;7.00;;;6.47;;
14394;SDS011;7282;49.204;10.652;2022-07-24T12:37:22;7.07;;;6.57;;
14394;SDS011;7282;49.204;10.652;2022-07-24T12:39:50;6.83;;;6.30;;
14394;SDS011;7282;49.204;10.652;2022-07-24T12:42:17;6.90;;;6.30;;
14394;SDS011;7282;49.204;10.652;2022-07-24T12:44:45;6.53;;;6.00;;
14394;SDS011;7282;49.204;10.652;2022-07-24T12:47:12;7.07;;;6.43;;
14394;SDS011;7282;49.204;10.652;2022-07-24T12:49:39;6.93;;;6.33;;
14394;SDS011;7282;49.204;10.652;2022-07-24T12:52:18;7.20;;;6.60;;
14394;SDS011;7282;49.204;10.652;2022-07-24T12:54:36;7.17;;;6.63;;
14394;SDS011;7282;49.204;10.652;2022-07-24T12:57:10;6.70;;;6.10;;
14394;SDS011;7282;49.204;10.652;2022-07-24T12:59:38;6.63;;;6.13;;
14394;SDS011;7282;49.204;10.652;2022-07-24T13:02:08;6.97;;;6.47;;
14394;SDS011;7282;49.204;10.652;2022-07-24T13:04:42;6.70;;;6.20;;
14394;SDS011;7282;49.204;10.652;2022-07-24T13:07:09;7.03;;;6.43;;
14394;SDS011;7282;49.204;10.652;2022-07-24T13:09:36;7.07;;;6.47;;
14394;SDS011;7282;49.204;10.652;2022-07-24T13:12:03;6.87;;;6.37;;
14394;SDS011;7282;49.204;10.652;2022-07-24T13:14:30;7.30;;;6.70;;
14394;SDS011;7282;49.204;10.652;2022-07-24T13:17:11;6.97;;;6.37;;
14394;SDS011;7282;49.204;10.652;2022-07-24T13:19:37;6.97;;;6.40;;
14394;SDS011;7282;49.204;10.652;2022-07-24T13:22:04;7.00;;;6.50;;
14394;SDS011;7282;49.204;10.652;2022-07-24T13:24:31;6.80;;;6.17;;
14394;SDS011;7282;49.204;10.652;2022-07-24T13:27:03;6.60;;;6.10;;
14394;SDS011;7282;49.204;10.652;2022-07-24T13:29:30;6.83;;;6.33;;
14394;SDS011;7282;49.204;10.652;2022-07-24T13:31:57;6.80;;;6.30;;
14394;SDS011;7282;49.204;10.652;2022-07-24T13:34:24;6.67;;;6.17;;
14394;SDS011;7282;49.204;10.652;2022-07-24T13:36:52;6.73;;;6.23;;
14394;SDS011;7282;49.204;10.652;2022-07-24T13:39:19;7.00;;;6.50;;
14394;SDS011;7282;49.204;10.652;2022-07-24T13:41:45;7.00;;;6.40;;
14394;SDS011;7282;49.204;10.652;2022-07-24T13:44:12;6.77;;;6.27;;
14394;SDS011;7282;49.204;10.652;2022-07-24T13:46:39;6.87;;;6.37;;
14394;SDS011;7282;49.204;10.652;2022-07-24T13:49:06;6.53;;;6.03;;
14394;SDS011;7282;49.204;10.652;2022-07-24T13:51:36;7.00;;;6.50;;
14394;SDS011;7282;49.204;10.652;2022-07-24T13:54:03;6.93;;;6.43;;
14394;SDS011;7282;49.204;10.652;2022-07-24T13:56:31;7.23;;;6.70;;
14394;SDS011;7282;49.204;10.652;2022-07-24T13:58:58;7.00;;;6.30;;
14394;SDS011;7282;49.204;10.652;2022-07-24T14:01:25;7.47;;;6.87;;
14394;SDS011;7282;49.204;10.652;2022-07-24T14:03:51;7.20;;;6.70;;
14394;SDS011;7282;49.204;10.652;2022-07-24T14:06:18;7.13;;;6.53;;
14394;SDS011;7282;49.204;10.652;2022-07-24T14:08:45;6.43;;;5.93;;
14394;SDS011;7282;49.204;10.652;2022-07-24T14:11:12;7.17;;;6.57;;
14394;SDS011;7282;49.204;10.652;2022-07-24T14:13:38;6.63;;;6.03;;
14394;SDS011;7282;49.204;10.652;2022-07-24T14:16:05;6.50;;;6.00;;
14394;SDS011;7282;49.204;10.652;2022-07-24T14:18:32;6.70;;;6.20;;
14394;SDS011;7282;49.204;10.652;2022-07-24T14:20:59;6.93;;;6.43;;
14394;SDS011;7282;49.204;10.652;2022-07-24T14:23:25;6.10;;;5.70;;
14394;SDS011;7282;49.204;10.652;2022-07-24T14:25:52;6.43;;;5.93;;
14394;SDS011;7282;49.204;10.652;2022-07-24T14:28:19;7.23;;;6.73;;
14394;SDS011;7282;49.204;10.652;2022-07-24T14:30:46;6.93;;;6.43;;
14394;SDS011;7282;49.204;10.652;2022-07-24T14:33:13;7.33;;;6.73;;
14394;SDS011;7282;49.204;10.652;2022-07-24T14:35:39;7.13;;;6.53;;
14394;SDS011;7282;49.204;10.652;2022-07-24T14:38:06;6.40;;;5.90;;
14394;SDS011;7282;49.204;10.652;2022-07-24T14:40:33;6.20;;;5.70;;
14394;SDS011;7282;49.204;10.652;2022-07-24T14:42:59;6.33;;;5.83;;
14394;SDS011;7282;49.204;10.652;2022-07-24T14:45:26;6.87;;;6.37;;
14394;SDS011;7282;49.204;10.652;2022-07-24T14:47:53;6.53;;;6.10;;
14394;SDS011;7282;49.204;10.652;2022-07-24T14:50:20;6.97;;;6.37;;
14394;SDS011;7282;49.204;10.652;2022-07-24T14:52:46;6.63;;;6.13;;
14394;SDS011;7282;49.204;10.652;2022-07-24T14:55:13;6.17;;;5.67;;
14394;SDS011;7282;49.204;10.652;2022-07-24T14:57:40;6.63;;;6.10;;